Startpagina
METAR-TAF:

METAR-TAF

Vliegvelden :

Vliegbasis Deelen

Arnhem, Nederland

breedte: 52-04N, lengte: 005-53E, hoogte: 48 m

Actueel weer

Dit bericht is 33 minuten geleden gemaakt, om 21:25 UTC
Weinig wind
Temperatuur 18°C
Vochtigheid 59%
Druk 1013 hPa
Zicht 10 km of meer
Verspreide wolken op 19000 ft
Verspreide wolken op 34000 ft

METAR: EHDL 162125Z AUTO 00000KT 9999 SCT190 SCT340 18/10 Q1013 BLU

Tijdstip: 23:58 (21:58 UTC)


TAF: ontbreekt

Waarnemingen en weersverwachtingen van meer dan 4000 vliegvelden (METAR en TAF).

De beschikbare stations zijn de gele en rode punten op de kaart.

Ga met uw muis naar het station om de naam te zien.

Klik dan om waarnemingen en weersverwachtingen te zien.

kaart wijzigen: klik op de groene knoppen met een zwart kruis om in te zoomen, op de groene knop met een streepje om uit te zoomen of op de groene pijlen voor aangrenzende kaarten.


METAR-TAF: